Terminal Aerodrome Forecast
Issued by NWS Upton, NY

Current Version | Previous Version | Text Only | Print | Product List | Glossary On
Versions: 1 2 3 4 5 6 7 8 9 10 11 12 13 14 15 16 17 18 19 20 21 22 23 24 25 26 27 28 29 30 31 32 33 34 35
000
FTUS41 KOKX 251400 AAB
TAFEWR
TAF AMD
KEWR 251445Z 2515/2618 25012KT P6SM BKN050
     FM251600 29014G20KT P6SM SCT050 SCT250
     FM252100 32011KT P6SM BKN080
     FM260600 03010KT P6SM BKN040
     FM261200 04015KT P6SM BKN030
     FM261500 04017G24KT 2SM -SN BKN020=

USA.gov is the U.S. government's official web portal to all federal, state and local government web resources and services.